Time;durP1;ratioP1;P1;durP2;ratioP2;P2;SDS_P1;SDS_P2;PMS_P1;PMS_P2;Temp;Humidity;BMP_temperature;BMP_pressure;BME280_temperature;BME280_humidity;BME280_pressure;Samples;Min_cycle;Max_cycle;Signal;HPM_P1;HPM_P2
2022/10/20 00:00:42;;;;;;;0.10;0.10;;;7.20;99.90;;;;;;5064646;28;20060;-86
2022/10/20 00:03:10;;;;;;;0.10;0.10;;;;;;;;;;5070182;28;20044;-86
2022/10/20 00:05:37;;;;;;;0.10;0.10;;;;;;;;;;5067323;28;20542;-86
2022/10/20 00:08:04;;;;;;;0.10;0.10;;;7.20;99.90;;;;;;5059343;28;20063;-86
2022/10/20 00:10:31;;;;;;;0.10;0.10;;;7.20;99.90;;;;;;5054183;28;20411;-86
2022/10/20 00:12:57;;;;;;;0.10;0.10;;;7.20;99.90;;;;;;5066883;28;20032;-87
2022/10/20 00:15:24;;;;;;;0.10;0.10;;;7.20;99.90;;;;;;5068050;28;20044;-86
2022/10/20 00:17:53;;;;;;;0.10;0.10;;;7.30;99.90;;;;;;5068468;28;20036;-85
2022/10/20 00:20:20;;;;;;;0.10;0.10;;;7.20;99.90;;;;;;5069398;28;20135;-86
2022/10/20 00:22:47;;;;;;;0.10;0.10;;;7.20;99.90;;;;;;5067136;28;20040;-87
2022/10/20 00:25:14;;;;;;;0.10;0.10;;;7.10;99.90;;;;;;5066413;28;20042;-86
2022/10/20 00:27:41;;;;;;;0.10;0.10;;;7.10;99.90;;;;;;5065550;28;20064;-88
2022/10/20 00:30:09;;;;;;;0.10;0.10;;;7.10;99.90;;;;;;5071540;28;20033;-86
2022/10/20 00:32:36;;;;;;;0.13;0.13;;;7.10;99.90;;;;;;5067377;28;20489;-86
2022/10/20 00:35:06;;;;;;;0.10;0.10;;;7.10;99.90;;;;;;5071664;28;20059;-86
2022/10/20 00:37:33;;;;;;;0.10;0.10;;;7.10;99.90;;;;;;5067936;28;20044;-86
2022/10/20 00:40:00;;;;;;;0.10;0.10;;;;;;;;;;5069963;28;20480;-87
2022/10/20 00:42:27;;;;;;;0.10;0.10;;;7.10;99.90;;;;;;5067455;28;20396;-87
2022/10/20 00:44:56;;;;;;;0.10;0.10;;;7.00;99.90;;;;;;5065359;28;20049;-86
2022/10/20 00:47:36;;;;;;;0.10;0.10;;;7.50;99.90;;;;;;5066218;28;20530;-86
2022/10/20 00:50:10;;;;;;;0.13;0.13;;;7.00;99.90;;;;;;5067452;28;20484;-87
2022/10/20 00:52:38;;;;;;;0.10;0.10;;;6.90;99.90;;;;;;5068370;28;20108;-84
2022/10/20 00:55:07;;;;;;;0.10;0.10;;;6.80;99.90;;;;;;5069057;28;20509;-87
2022/10/20 00:57:34;;;;;;;0.10;0.10;;;6.90;99.90;;;;;;5066520;28;20040;-87
2022/10/20 01:00:04;;;;;;;0.10;0.10;;;6.90;99.90;;;;;;5063876;28;20043;-87
2022/10/20 01:02:31;;;;;;;0.10;0.10;;;;;;;;;;5062595;28;20045;-87
2022/10/20 01:04:58;;;;;;;0.20;0.20;;;6.90;99.90;;;;;;5065859;28;20386;-86
2022/10/20 01:07:26;;;;;;;0.10;0.10;;;6.90;99.90;;;;;;5068096;28;20040;-86
2022/10/20 01:09:53;;;;;;;0.10;0.10;;;6.90;99.90;;;;;;5069250;28;20443;-87
2022/10/20 01:12:27;;;;;;;0.10;0.10;;;6.90;99.90;;;;;;5066253;28;20051;-85
2022/10/20 01:15:01;;;;;;;0.10;0.10;;;6.90;99.90;;;;;;5069272;28;20079;-87
2022/10/20 01:17:41;;;;;;;0.10;0.10;;;6.80;99.90;;;;;;5065702;28;20489;-85
2022/10/20 01:20:36;;;;;;;0.10;0.10;;;6.90;99.90;;;;;;5057136;28;20044;-87
2022/10/20 01:23:32;;;;;;;0.10;0.10;;;6.80;99.90;;;;;;5061997;28;20039;-87
2022/10/20 01:26:19;;;;;;;0.10;0.10;;;6.70;99.90;;;;;;5063417;28;20532;-85
2022/10/20 01:28:56;;;;;;;0.10;0.10;;;6.80;99.90;;;;;;5062337;28;20056;-85
2022/10/20 01:31:29;;;;;;;0.10;0.10;;;6.70;99.90;;;;;;5063203;28;20040;-86
2022/10/20 01:34:02;;;;;;;0.10;0.10;;;6.70;99.90;;;;;;5069198;28;20094;-87
2022/10/20 01:36:34;;;;;;;0.10;0.10;;;6.70;99.90;;;;;;5070111;28;20142;-86
2022/10/20 01:39:06;;;;;;;0.10;0.10;;;6.60;99.90;;;;;;5068278;28;20079;-87
2022/10/20 01:41:38;;;;;;;0.10;0.10;;;6.60;99.90;;;;;;5071389;28;20139;-87
2022/10/20 01:44:25;;;;;;;0.10;0.10;;;6.70;99.90;;;;;;5088575;28;20072;-87
2022/10/20 01:46:54;;;;;;;0.10;0.10;;;6.70;99.90;;;;;;5065023;28;20520;-87
2022/10/20 01:49:22;;;;;;;0.10;0.10;;;6.70;99.90;;;;;;5069189;28;20118;-87
2022/10/20 01:51:49;;;;;;;0.10;0.10;;;;;;;;;;5065186;28;20480;-86
2022/10/20 01:54:21;;;;;;;0.10;0.10;;;6.70;99.90;;;;;;5070778;28;20123;-87
2022/10/20 01:57:02;;;;;;;0.10;0.10;;;6.70;99.90;;;;;;5065501;28;20043;-87
2022/10/20 01:59:46;;;;;;;0.03;0.03;;;6.70;99.90;;;;;;5068949;28;20055;-87
2022/10/20 02:02:32;;;;;;;0.10;0.10;;;6.70;99.90;;;;;;5070467;28;20407;-86
2022/10/20 02:05:12;;;;;;;0.10;0.10;;;6.70;99.90;;;;;;5069847;28;20037;-87
2022/10/20 02:07:40;;;;;;;0.10;0.10;;;6.70;99.90;;;;;;5088021;28;20047;-86
2022/10/20 02:10:13;;;;;;;0.10;0.10;;;6.80;99.90;;;;;;5070542;28;20036;-87
2022/10/20 02:12:42;;;;;;;0.03;0.03;;;7.00;99.90;;;;;;5069769;28;20139;-87
2022/10/20 02:15:15;;;;;;;0.10;0.10;;;7.60;99.90;;;;;;5070859;28;20049;-86
2022/10/20 02:17:45;;;;;;;0.00;0.00;;;6.80;99.90;;;;;;5071078;28;20075;-84
2022/10/20 02:20:13;;;;;;;0.10;0.10;;;6.80;99.90;;;;;;5068543;28;20052;-87
2022/10/20 02:22:40;;;;;;;0.10;0.10;;;6.80;99.90;;;;;;5071949;28;20050;-86
2022/10/20 02:25:09;;;;;;;0.00;0.00;;;6.90;99.90;;;;;;5066542;28;20396;-86
2022/10/20 02:27:39;;;;;;;0.10;0.10;;;6.90;99.90;;;;;;5067868;28;20427;-86
2022/10/20 02:30:10;;;;;;;0.10;0.10;;;7.00;99.90;;;;;;5071933;28;20066;-87
2022/10/20 02:32:40;;;;;;;0.10;0.10;;;7.00;99.90;;;;;;5072228;28;20068;-86
2022/10/20 02:35:09;;;;;;;;;;;7.00;99.90;;;;;;5065917;28;20047;-86
2022/10/20 02:37:36;;;;;;;0.08;0.08;;;7.00;99.90;;;;;;5067921;28;20571;-86
2022/10/20 02:40:04;;;;;;;0.10;0.10;;;7.00;99.90;;;;;;5070358;28;20051;-86
2022/10/20 02:42:31;;;;;;;0.10;0.10;;;7.00;99.90;;;;;;5070210;28;20048;-87
2022/10/20 02:44:57;;;;;;;0.10;0.10;;;7.00;99.90;;;;;;5069058;28;20044;-85
2022/10/20 02:47:24;;;;;;;0.10;0.10;;;7.00;99.90;;;;;;5071769;28;20109;-86
2022/10/20 02:49:52;;;;;;;0.10;0.10;;;7.00;99.90;;;;;;5069553;28;20048;-87
2022/10/20 02:52:19;;;;;;;0.10;0.10;;;6.90;99.90;;;;;;5065770;28;20424;-86
2022/10/20 02:54:46;;;;;;;0.10;0.10;;;6.90;99.90;;;;;;5069093;28;20051;-87
2022/10/20 02:57:13;;;;;;;0.00;0.00;;;6.90;99.90;;;;;;5067462;28;20044;-87
2022/10/20 02:59:40;;;;;;;0.10;0.10;;;6.90;99.90;;;;;;5068049;28;20475;-86
2022/10/20 03:02:06;;;;;;;0.10;0.10;;;6.90;99.90;;;;;;5070814;28;20056;-87
2022/10/20 03:04:34;;;;;;;0.10;0.10;;;;;;;;;;5072499;28;20040;-87
2022/10/20 03:07:02;;;;;;;0.10;0.10;;;6.80;99.90;;;;;;5071466;28;20048;-86
2022/10/20 03:09:29;;;;;;;0.10;0.10;;;6.80;99.90;;;;;;5070915;28;20049;-87
2022/10/20 03:11:56;;;;;;;0.00;0.00;;;6.80;99.90;;;;;;5071315;28;20040;-87
2022/10/20 03:14:22;;;;;;;0.10;0.10;;;6.80;99.90;;;;;;5066161;28;20415;-86
2022/10/20 03:16:49;;;;;;;0.10;0.10;;;6.80;99.90;;;;;;5067810;28;20049;-87
2022/10/20 03:19:16;;;;;;;0.10;0.10;;;6.70;99.90;;;;;;5074794;28;20480;-86
2022/10/20 03:21:43;;;;;;;0.10;0.10;;;6.70;99.90;;;;;;5068993;28;20045;-86
2022/10/20 03:24:11;;;;;;;0.10;0.10;;;6.70;99.90;;;;;;5065140;28;20407;-86
2022/10/20 03:26:38;;;;;;;0.10;0.10;;;;;;;;;;5068047;28;20512;-85
2022/10/20 03:29:05;;;;;;;0.10;0.10;;;;;;;;;;5070574;28;20070;-86
2022/10/20 03:31:32;;;;;;;0.10;0.10;;;6.60;99.90;;;;;;5067992;28;20045;-86
2022/10/20 03:33:59;;;;;;;0.10;0.10;;;6.70;99.90;;;;;;5073090;28;20035;-87
2022/10/20 03:36:26;;;;;;;0.10;0.10;;;6.80;99.90;;;;;;5070686;28;20434;-86
2022/10/20 03:38:53;;;;;;;0.10;0.10;;;6.70;99.90;;;;;;5070611;28;20488;-84
2022/10/20 03:41:21;;;;;;;0.10;0.10;;;6.70;99.90;;;;;;5067777;28;20044;-86
2022/10/20 03:43:48;;;;;;;0.10;0.10;;;;;;;;;;5064513;28;20108;-87
2022/10/20 03:46:15;;;;;;;0.10;0.10;;;;;;;;;;5064860;28;20105;-86
2022/10/20 03:48:42;;;;;;;0.10;0.10;;;;;;;;;;5083897;28;20119;-87
2022/10/20 03:51:12;;;;;;;0.00;0.00;;;6.60;99.90;;;;;;5064696;28;20040;-87
2022/10/20 03:53:39;;;;;;;0.10;0.10;;;;;;;;;;5071089;28;20135;-85
2022/10/20 03:56:07;;;;;;;0.00;0.00;;;6.40;99.90;;;;;;5068913;28;20048;-87
2022/10/20 03:58:35;;;;;;;0.10;0.10;;;7.10;99.90;;;;;;5070029;28;20056;-87
2022/10/20 04:01:03;;;;;;;0.10;0.10;;;6.40;99.90;;;;;;5064935;28;20070;-85
2022/10/20 04:03:30;;;;;;;0.15;0.15;;;;;;;;;;5065680;28;20400;-87
2022/10/20 04:05:57;;;;;;;0.10;0.10;;;6.40;99.90;;;;;;5066929;28;20054;-87
2022/10/20 04:08:24;;;;;;;0.10;0.10;;;;;;;;;;5071768;28;20484;-87
2022/10/20 04:10:51;;;;;;;0.10;0.10;;;6.30;99.90;;;;;;5067695;28;20067;-86
2022/10/20 04:13:18;;;;;;;0.10;0.10;;;6.30;99.90;;;;;;5065273;28;20043;-87
2022/10/20 04:15:46;;;;;;;0.10;0.10;;;6.20;99.90;;;;;;5069701;28;20051;-86
2022/10/20 04:18:12;;;;;;;0.10;0.10;;;6.10;99.90;;;;;;5069445;28;20411;-86
2022/10/20 04:20:39;;;;;;;0.10;0.10;;;6.10;99.90;;;;;;5068770;28;20055;-87
2022/10/20 04:23:10;;;;;;;0.10;0.10;;;6.10;99.90;;;;;;5066562;28;20040;-86
2022/10/20 04:25:39;;;;;;;0.10;0.10;;;6.20;99.90;;;;;;5069890;28;20041;-87
2022/10/20 04:28:06;;;;;;;0.10;0.10;;;;;;;;;;5070372;28;20036;-87
2022/10/20 04:30:33;;;;;;;0.00;0.00;;;6.20;99.90;;;;;;5070463;28;20070;-87
2022/10/20 04:33:01;;;;;;;0.10;0.10;;;6.20;99.90;;;;;;5065552;28;20041;-86
2022/10/20 04:35:28;;;;;;;0.10;0.10;;;;;;;;;;5070248;28;20048;-87
2022/10/20 04:37:55;;;;;;;0.10;0.10;;;;;;;;;;5070475;28;20052;-86
2022/10/20 04:40:22;;;;;;;0.10;0.10;;;6.40;99.90;;;;;;5082682;28;20040;-86
2022/10/20 04:42:49;;;;;;;0.10;0.10;;;;;;;;;;5065819;28;20072;-86
2022/10/20 04:45:16;;;;;;;0.10;0.10;;;6.30;99.90;;;;;;5066948;28;20041;-87
2022/10/20 04:47:43;;;;;;;0.10;0.10;;;6.30;99.90;;;;;;5069741;28;20040;-87
2022/10/20 04:52:52;;;;;;;0.10;0.10;;;6.30;99.90;;;;;;4963881;28;20047;-92
2022/10/20 04:55:19;;;;;;;0.10;0.10;;;7.90;99.90;;;;;;4964791;29;20055;-93
2022/10/20 04:57:46;;;;;;;0.08;0.08;;;;;;;;;;4969824;29;20043;-92
2022/10/20 05:00:14;;;;;;;0.08;0.08;;;6.30;99.90;;;;;;4982179;28;20055;-96
2022/10/20 05:02:41;;;;;;;0.10;0.10;;;6.20;99.90;;;;;;4945117;29;20043;-96
2022/10/20 05:05:08;;;;;;;0.00;0.00;;;7.70;99.90;;;;;;4951050;29;20034;-94
2022/10/20 05:07:35;;;;;;;0.00;0.00;;;;;;;;;;4963727;29;20035;-93
2022/10/20 05:10:05;;;;;;;0.10;0.10;;;6.30;99.90;;;;;;4966263;28;20044;-94
2022/10/20 05:12:32;;;;;;;0.10;0.10;;;6.30;99.90;;;;;;4947004;29;20048;-92
2022/10/20 05:15:00;;;;;;;0.10;0.10;;;;;;;;;;4954802;29;20054;-93
2022/10/20 05:17:28;;;;;;;0.10;0.10;;;6.30;99.90;;;;;;4954866;29;20439;-96
2022/10/20 05:19:55;;;;;;;0.10;0.10;;;;;;;;;;4948836;28;20044;-95
2022/10/20 05:22:22;;;;;;;0.10;0.10;;;6.30;99.90;;;;;;4953460;29;20070;-92
2022/10/20 05:24:49;;;;;;;0.10;0.10;;;;;;;;;;4966991;29;20070;-92
2022/10/20 05:27:17;;;;;;;0.10;0.10;;;6.30;99.90;;;;;;4954201;28;20063;-93
2022/10/20 05:29:45;;;;;;;0.10;0.10;;;;;;;;;;4964669;28;20056;-95
2022/10/20 05:32:12;;;;;;;0.10;0.10;;;6.30;99.90;;;;;;4965018;29;20036;-92
2022/10/20 05:34:39;;;;;;;0.08;0.08;;;;;;;;;;4954940;28;20105;-93
2022/10/20 05:37:06;;;;;;;0.00;0.00;;;6.40;99.90;;;;;;4967426;29;20067;-96
2022/10/20 05:39:33;;;;;;;0.10;0.10;;;;;;;;;;4950127;28;20058;-95
2022/10/20 05:42:00;;;;;;;0.10;0.10;;;6.30;99.90;;;;;;4953422;28;20063;-94
2022/10/20 05:44:28;;;;;;;0.10;0.10;;;6.30;99.90;;;;;;4951126;28;20062;-94
2022/10/20 05:46:55;;;;;;;0.10;0.10;;;8.20;99.90;;;;;;4965631;28;20043;-94
2022/10/20 05:49:22;;;;;;;0.10;0.10;;;;;;;;;;4951286;28;20067;-91
2022/10/20 05:51:49;;;;;;;0.08;0.08;;;6.30;99.90;;;;;;4962836;29;20059;-94
2022/10/20 05:54:16;;;;;;;0.10;0.10;;;6.20;99.90;;;;;;4952194;29;20063;-92
2022/10/20 05:56:43;;;;;;;0.10;0.10;;;;;;;;;;4949655;28;20052;-90
2022/10/20 06:00:17;;;;;;;;;;;;;;;;;;;;;
2022/10/20 06:02:48;;;;;;;0.20;0.20;;;6.00;99.90;;;;;;4956017;28;20060;-96
2022/10/20 06:05:15;;;;;;;0.10;0.10;;;5.90;99.90;;;;;;4949507;28;20030;-94
2022/10/20 06:07:43;;;;;;;0.00;0.00;;;;;;;;;;4963827;28;20055;-93
2022/10/20 06:10:10;;;;;;;0.10;0.10;;;;;;;;;;4949933;28;20046;-96
2022/10/20 06:12:38;;;;;;;0.00;0.00;;;;;;;;;;4950056;28;20052;-94
2022/10/20 06:18:51;;;;;;;0.08;0.08;;;6.40;99.90;;;;;;4951476;29;20092;-94
2022/10/20 06:21:20;;;;;;;0.10;0.10;;;6.50;99.90;;;;;;4951255;29;20063;-90
2022/10/20 06:23:52;;;;;;;0.10;0.10;;;6.30;99.90;;;;;;5037906;28;20039;-93
2022/10/20 06:26:21;;;;;;;0.10;0.10;;;6.40;99.90;;;;;;4967160;29;20082;-91
2022/10/20 06:28:51;;;;;;;0.10;0.10;;;6.40;99.90;;;;;;4953598;28;20058;-94
2022/10/20 06:31:19;;;;;;;0.10;0.10;;;6.30;99.90;;;;;;4965131;29;20028;-92
2022/10/20 06:33:48;;;;;;;0.10;0.10;;;6.90;99.90;;;;;;4966614;28;20055;-94
2022/10/20 06:36:15;;;;;;;0.10;0.10;;;;;;;;;;4967821;29;20043;-94
2022/10/20 06:38:43;;;;;;;0.10;0.10;;;;;;;;;;4962885;29;20042;-95
2022/10/20 06:41:12;;;;;;;0.10;0.10;;;6.40;99.90;;;;;;4952013;28;20055;-93
2022/10/20 06:43:39;;;;;;;0.10;0.10;;;8.00;99.90;;;;;;4958110;28;20087;-95
2022/10/20 06:46:09;;;;;;;0.10;0.10;;;6.50;99.90;;;;;;4950013;28;20042;-93
2022/10/20 06:48:37;;;;;;;0.10;0.10;;;6.50;99.90;;;;;;4965543;28;20032;-93
2022/10/20 06:51:06;;;;;;;0.10;0.10;;;6.40;99.90;;;;;;4946098;28;20071;-94
2022/10/20 06:53:35;;;;;;;0.10;0.10;;;6.50;99.90;;;;;;4955153;28;20036;-93
2022/10/20 06:56:05;;;;;;;0.17;0.17;;;6.60;99.90;;;;;;4963669;28;20032;-91
2022/10/20 06:58:32;;;;;;;;;;;6.60;99.90;;;;;;4952795;28;20036;-94
2022/10/20 07:01:00;;;;;;;0.10;0.10;;;6.70;99.90;;;;;;4966619;28;19919;-94
2022/10/20 07:03:31;;;;;;;0.10;0.10;;;6.70;99.90;;;;;;4966672;28;20063;-94
2022/10/20 07:05:59;;;;;;;0.10;0.10;;;6.80;99.90;;;;;;4947699;28;20039;-92
2022/10/20 07:08:29;;;;;;;0.10;0.10;;;6.90;99.90;;;;;;4948003;29;20027;-95
2022/10/20 07:11:02;;;;;;;0.10;0.10;;;7.80;99.90;;;;;;4949310;28;20054;-95
2022/10/20 07:13:29;;;;;;;0.10;0.10;;;7.10;99.90;;;;;;4953532;28;20035;-94
2022/10/20 07:15:57;;;;;;;0.10;0.10;;;7.10;99.90;;;;;;4945180;28;20094;-96
2022/10/20 07:18:31;;;;;;;0.10;0.10;;;7.20;99.90;;;;;;4952245;29;20036;-93
2022/10/20 07:21:14;;;;;;;0.10;0.10;;;7.40;99.90;;;;;;4929288;28;20056;-92
2022/10/20 07:23:43;;;;;;;0.10;0.10;;;7.30;99.90;;;;;;4916573;28;20059;-95
2022/10/20 07:26:12;;;;;;;0.10;0.10;;;7.50;99.90;;;;;;4915682;28;20123;-91
2022/10/20 07:28:41;;;;;;;0.10;0.10;;;7.60;99.90;;;;;;4917878;28;20048;-94
2022/10/20 07:31:10;;;;;;;0.10;0.10;;;8.60;99.90;;;;;;4918326;28;20051;-91
2022/10/20 07:33:37;;;;;;;0.10;0.10;;;;;;;;;;4913503;28;20059;-90
2022/10/20 07:36:11;;;;;;;0.10;0.10;;;7.80;99.90;;;;;;4929906;28;20075;-91
2022/10/20 07:38:38;;;;;;;0.10;0.10;;;;;;;;;;4915420;28;20063;-90
2022/10/20 07:41:07;;;;;;;0.10;0.10;;;7.90;99.90;;;;;;4932114;28;20049;-90
2022/10/20 07:43:35;;;;;;;0.10;0.10;;;8.00;99.90;;;;;;4930823;29;20052;-88
2022/10/20 07:46:02;;;;;;;0.10;0.10;;;8.10;99.90;;;;;;4925376;28;20072;-91
2022/10/20 07:48:29;;;;;;;0.10;0.10;;;8.10;99.90;;;;;;4937817;28;20043;-89
2022/10/20 07:51:24;;;;;;;0.10;0.10;;;8.10;99.90;;;;;;4906753;28;20071;-89
2022/10/20 07:53:52;;;;;;;0.10;0.10;;;8.30;99.90;;;;;;4920552;28;20040;-87
2022/10/20 07:56:28;;;;;;;0.10;0.10;;;8.20;99.90;;;;;;4918166;28;20442;-89
2022/10/20 07:58:55;;;;;;;0.10;0.10;;;8.30;99.90;;;;;;4936371;28;20072;-86
2022/10/20 08:01:22;;;;;;;0.10;0.10;;;;;;;;;;4967534;28;20051;-90
2022/10/20 08:03:50;;;;;;;0.10;0.10;;;8.40;99.90;;;;;;4947064;28;20048;-89
2022/10/20 08:06:17;;;;;;;0.10;0.10;;;;;;;;;;4968376;28;20055;-88
2022/10/20 08:08:51;;;;;;;0.10;0.10;;;;;;;;;;4946569;28;20607;-90
2022/10/20 08:11:18;;;;;;;0.10;0.10;;;;;;;;;;4955633;28;20055;-90
2022/10/20 08:13:50;;;;;;;0.10;0.10;;;8.70;99.90;;;;;;4942140;28;20812;-90
2022/10/20 08:16:17;;;;;;;0.10;0.10;;;;;;;;;;4939072;28;20087;-89
2022/10/20 08:23:15;;;;;;;0.10;0.10;;;9.00;99.90;;;;;;4991702;28;20045;-89
2022/10/20 08:25:43;;;;;;;0.10;0.10;;;;;;;;;;4939413;28;20286;-89
2022/10/20 08:28:10;;;;;;;0.10;0.10;;;8.90;99.90;;;;;;4945046;28;20082;-89
2022/10/20 08:30:38;;;;;;;0.10;0.10;;;10.50;99.90;;;;;;4936750;28;20046;-89
2022/10/20 08:33:05;;;;;;;0.10;0.10;;;9.10;99.90;;;;;;4968668;28;20101;-90
2022/10/20 08:35:32;;;;;;;0.03;0.03;;;;;;;;;;4965059;28;20086;-88
2022/10/20 08:37:59;;;;;;;0.10;0.10;;;;;;;;;;4956570;28;20115;-90
2022/10/20 08:40:29;;;;;;;0.10;0.10;;;9.30;99.90;;;;;;4937776;28;20080;-89
2022/10/20 08:42:56;;;;;;;0.10;0.10;;;9.90;99.90;;;;;;4940946;28;20067;-90
2022/10/20 08:45:25;;;;;;;0.10;0.10;;;10.80;99.90;;;;;;4960178;28;20134;-86
2022/10/20 08:47:56;;;;;;;0.10;0.10;;;9.60;99.90;;;;;;4956083;28;20079;-90
2022/10/20 08:50:27;;;;;;;0.10;0.10;;;11.30;99.90;;;;;;4929414;28;20051;-90
2022/10/20 08:52:58;;;;;;;0.10;0.10;;;10.40;99.90;;;;;;4942184;28;20091;-89
2022/10/20 08:55:28;;;;;;;0.10;0.10;;;10.00;99.90;;;;;;4949289;28;20512;-90
2022/10/20 08:58:00;;;;;;;0.00;0.00;;;10.10;99.90;;;;;;4936929;28;20047;-87
2022/10/20 09:00:29;;;;;;;0.05;0.05;;;10.20;99.90;;;;;;4948188;28;20075;-91
2022/10/20 09:03:08;;;;;;;0.05;0.05;;;10.30;99.90;;;;;;4943817;28;20147;-91
2022/10/20 09:05:36;;;;;;;0.10;0.10;;;;;;;;;;4930536;28;20086;-90
2022/10/20 09:08:03;;;;;;;0.00;0.00;;;10.70;99.90;;;;;;4952574;28;20078;-90
2022/10/20 09:10:33;;;;;;;0.00;0.00;;;10.80;99.90;;;;;;4939972;28;20130;-90
2022/10/20 09:13:04;;;;;;;0.00;0.00;;;10.90;99.90;;;;;;4945982;29;20058;-90
2022/10/20 09:15:31;;;;;;;0.00;0.00;;;10.90;99.90;;;;;;4952519;28;20138;-91
2022/10/20 09:18:03;;;;;;;0.00;0.00;;;12.90;99.90;;;;;;4932393;28;20111;-90
2022/10/20 09:20:37;;;;;;;0.05;0.05;;;11.10;99.90;;;;;;5013860;28;20051;-92
2022/10/20 09:23:04;;;;;;;0.00;0.00;;;12.30;99.90;;;;;;4946791;28;20052;-88
2022/10/20 09:25:49;;;;;;;0.00;0.00;;;12.10;99.90;;;;;;4928368;29;20044;-91
2022/10/20 09:28:21;;;;;;;0.00;0.00;;;12.90;99.90;;;;;;4930613;29;20075;-91
2022/10/20 09:30:48;;;;;;;0.00;0.00;;;;;;;;;;4931641;28;20119;-90
2022/10/20 09:33:28;;;;;;;0.00;0.00;;;11.40;99.90;;;;;;4937305;28;20071;-90
2022/10/20 09:36:03;;;;;;;0.00;0.00;;;11.40;99.90;;;;;;4929439;28;20071;-92
2022/10/20 09:38:33;;;;;;;0.00;0.00;;;11.50;99.90;;;;;;4935665;28;20115;-90
2022/10/20 09:41:09;;;;;;;0.00;0.00;;;12.10;99.90;;;;;;4933438;28;20048;-90
2022/10/20 09:44:40;;;;;;;0.00;0.00;;;12.70;99.90;;;;;;4932523;28;20075;-87
2022/10/20 09:47:12;;;;;;;0.00;0.00;;;12.00;99.90;;;;;;4946525;28;20091;-91
2022/10/20 09:49:42;;;;;;;0.00;0.00;;;13.30;99.90;;;;;;4939120;28;20079;-90
2022/10/20 09:52:16;;;;;;;0.00;0.00;;;12.30;99.90;;;;;;4927152;28;20087;-91
2022/10/20 09:54:46;;;;;;;0.00;0.00;;;12.10;99.90;;;;;;4945807;29;20148;-89
2022/10/20 09:57:17;;;;;;;0.00;0.00;;;13.40;99.90;;;;;;4937113;28;20603;-87
2022/10/20 09:59:45;;;;;;;0.00;0.00;;;12.40;99.90;;;;;;4962041;28;20126;-90
2022/10/20 10:02:29;;;;;;;0.00;0.00;;;12.60;99.90;;;;;;4938071;28;20047;-91
2022/10/20 10:07:59;;;;;;;0.00;0.00;;;14.20;99.90;;;;;;5131354;27;20128;-91
2022/10/20 10:10:28;;;;;;;0.00;0.00;;;12.70;99.90;;;;;;5091483;28;20108;-91
2022/10/20 10:12:59;;;;;;;0.00;0.00;;;12.80;99.90;;;;;;5092746;28;20503;-90
2022/10/20 10:15:29;;;;;;;0.00;0.00;;;14.60;99.90;;;;;;5092320;28;20119;-89
2022/10/20 10:17:58;;;;;;;0.00;0.00;;;12.90;99.90;;;;;;5091452;28;20118;-88
2022/10/20 10:20:31;;;;;;;0.00;0.00;;;12.90;99.90;;;;;;5113681;28;20076;-87
2022/10/20 10:23:25;;;;;;;0.00;0.00;;;13.00;99.90;;;;;;5092090;28;20148;-91
2022/10/20 10:25:52;;;;;;;0.00;0.00;;;13.10;99.90;;;;;;5074941;28;20075;-89
2022/10/20 10:28:32;;;;;;;0.00;0.00;;;13.20;99.90;;;;;;5093749;28;20056;-90
2022/10/20 10:31:24;;;;;;;0.00;0.00;;;14.60;99.90;;;;;;5097756;28;20066;-90
2022/10/20 10:33:55;;;;;;;0.00;0.00;;;13.20;99.90;;;;;;5079198;28;20151;-89
2022/10/20 10:36:32;;;;;;;0.00;0.00;;;13.10;99.90;;;;;;5090732;28;20127;-90
2022/10/20 10:39:02;;;;;;;0.00;0.00;;;13.30;99.90;;;;;;5089583;28;20178;-89
2022/10/20 10:41:48;;;;;;;0.00;0.00;;;13.40;99.90;;;;;;5091373;28;20132;-90
2022/10/20 10:44:25;;;;;;;0.00;0.00;;;13.40;99.90;;;;;;5090658;28;20144;-90
2022/10/20 10:46:59;;;;;;;0.00;0.00;;;13.40;99.90;;;;;;5087962;28;20899;-89
2022/10/20 10:49:54;;;;;;;0.00;0.00;;;14.60;99.90;;;;;;5094438;28;20070;-90
2022/10/20 10:52:32;;;;;;;0.00;0.00;;;13.30;99.90;;;;;;5095382;28;20052;-83
2022/10/20 10:55:14;;;;;;;0.00;0.00;;;14.40;99.90;;;;;;5102107;28;20072;-88
2022/10/20 10:58:09;;;;;;;0.00;0.00;;;13.30;99.90;;;;;;5105363;28;20048;-90
2022/10/20 11:00:45;;;;;;;0.00;0.00;;;13.30;99.90;;;;;;5091134;28;20048;-85
2022/10/20 11:03:27;;;;;;;0.00;0.00;;;13.50;99.90;;;;;;5089135;28;20048;-90
2022/10/20 11:06:05;;;;;;;0.00;0.00;;;14.80;99.90;;;;;;5090624;28;20147;-87
2022/10/20 11:08:47;;;;;;;0.00;0.00;;;13.50;99.90;;;;;;5094351;28;20044;-90
2022/10/20 11:11:29;;;;;;;0.00;0.00;;;13.50;99.90;;;;;;5088710;28;20047;-87
2022/10/20 11:14:09;;;;;;;0.00;0.00;;;13.70;99.90;;;;;;5096168;28;20063;-91
2022/10/20 11:16:42;;;;;;;0.00;0.00;;;13.70;99.90;;;;;;5087954;28;20037;-90
2022/10/20 11:19:33;;;;;;;0.00;0.00;;;13.80;99.90;;;;;;5079822;28;20082;-90
2022/10/20 11:22:10;;;;;;;0.00;0.00;;;13.90;99.90;;;;;;5081772;28;20028;-88
2022/10/20 11:24:48;;;;;;;0.00;0.00;;;14.50;99.90;;;;;;5084732;28;20067;-88
2022/10/20 11:27:21;;;;;;;0.00;0.00;;;14.00;99.90;;;;;;5086691;28;20068;-85
2022/10/20 11:29:52;;;;;;;0.00;0.00;;;14.90;99.90;;;;;;5078169;28;20041;-87
2022/10/20 11:32:25;;;;;;;0.00;0.00;;;14.20;99.90;;;;;;5091926;28;20101;-90
2022/10/20 11:35:01;;;;;;;0.00;0.00;;;14.30;99.90;;;;;;5085516;28;20048;-86
2022/10/20 11:37:31;;;;;;;0.00;0.00;;;14.50;99.90;;;;;;5088830;28;20048;-88
2022/10/20 11:40:05;;;;;;;0.00;0.00;;;14.50;99.90;;;;;;5085110;28;20051;-89
2022/10/20 11:42:42;;;;;;;0.00;0.00;;;14.50;99.90;;;;;;5084306;28;20128;-87
2022/10/20 11:45:25;;;;;;;0.00;0.00;;;14.60;99.90;;;;;;5084229;28;20072;-87
2022/10/20 11:47:59;;;;;;;0.00;0.00;;;14.80;99.90;;;;;;5101125;28;20127;-90
2022/10/20 11:50:26;;;;;;;0.00;0.00;;;;;;;;;;5081845;28;20175;-86
2022/10/20 11:53:05;;;;;;;0.00;0.00;;;14.60;99.90;;;;;;5084429;28;20091;-90
2022/10/20 11:56:02;;;;;;;0.00;0.00;;;14.60;99.90;;;;;;5077330;28;20068;-89
2022/10/20 11:58:46;;;;;;;0.00;0.00;;;14.40;99.90;;;;;;5081458;28;20045;-86
2022/10/20 12:01:28;;;;;;;0.00;0.00;;;14.40;99.90;;;;;;5077959;28;20588;-87
2022/10/20 12:04:33;;;;;;;0.00;0.00;;;14.40;99.90;;;;;;5086873;28;20075;-90
2022/10/20 12:07:41;;;;;;;0.00;0.00;;;14.30;99.90;;;;;;5085096;28;20061;-89
2022/10/20 12:10:32;;;;;;;0.00;0.00;;;14.30;99.90;;;;;;5042619;28;20083;-89
2022/10/20 12:13:10;;;;;;;0.00;0.00;;;15.40;99.90;;;;;;5088954;28;20047;-89
2022/10/20 12:15:46;;;;;;;0.00;0.00;;;14.50;99.90;;;;;;5086964;28;20071;-84
2022/10/20 12:18:26;;;;;;;0.00;0.00;;;15.50;99.90;;;;;;5093822;28;20036;-88
2022/10/20 12:21:01;;;;;;;0.00;0.00;;;14.60;99.90;;;;;;5086888;28;20049;-90
2022/10/20 12:24:01;;;;;;;0.00;0.00;;;14.50;99.90;;;;;;5081456;28;20052;-90
2022/10/20 12:26:50;;;;;;;0.00;0.00;;;14.70;99.90;;;;;;5084276;28;20106;-90
2022/10/20 12:29:56;;;;;;;0.00;0.00;;;14.80;99.90;;;;;;5076549;28;20071;-89
2022/10/20 12:33:08;;;;;;;0.00;0.00;;;14.90;99.90;;;;;;5077942;28;20041;-81
2022/10/20 12:35:57;;;;;;;0.00;0.00;;;14.90;99.90;;;;;;5073854;28;20111;-89
2022/10/20 12:38:24;;;;;;;0.00;0.00;;;14.40;99.90;;;;;;5078855;28;20036;-90
2022/10/20 12:40:56;;;;;;;0.00;0.00;;;14.90;99.90;;;;;;5083991;28;20156;-90
2022/10/20 12:43:28;;;;;;;0.00;0.00;;;14.90;99.90;;;;;;5080033;28;20539;-89
2022/10/20 12:45:58;;;;;;;0.00;0.00;;;14.90;99.90;;;;;;5075809;28;20076;-85
2022/10/20 12:48:26;;;;;;;0.00;0.00;;;15.00;99.90;;;;;;5082338;28;20064;-90
2022/10/20 12:51:03;;;;;;;0.00;0.00;;;14.90;99.90;;;;;;5078527;28;20056;-90
2022/10/20 12:53:30;;;;;;;0.00;0.00;;;14.90;99.90;;;;;;5085814;28;20064;-90
2022/10/20 12:56:02;;;;;;;0.00;0.00;;;15.70;99.90;;;;;;5087142;28;20068;-90
2022/10/20 12:58:31;;;;;;;0.05;0.05;;;15.00;99.90;;;;;;5085083;28;20072;-88
2022/10/20 13:01:09;;;;;;;0.00;0.00;;;15.20;99.90;;;;;;5088025;28;20052;-87
2022/10/20 13:03:46;;;;;;;0.00;0.00;;;15.10;99.90;;;;;;5092386;28;20049;-83
2022/10/20 13:06:38;;;;;;;0.00;0.00;;;15.20;99.90;;;;;;5089283;28;20052;-85
2022/10/20 13:09:23;;;;;;;0.00;0.00;;;15.10;99.90;;;;;;5084636;28;20067;-90
2022/10/20 13:12:03;;;;;;;0.00;0.00;;;15.10;99.90;;;;;;5077510;28;20108;-90
2022/10/20 13:14:47;;;;;;;0.00;0.00;;;15.00;99.90;;;;;;5082902;28;20100;-90
2022/10/20 13:17:21;;;;;;;0.00;0.00;;;15.00;99.90;;;;;;5078136;28;20143;-88
2022/10/20 13:19:55;;;;;;;0.00;0.00;;;15.20;99.90;;;;;;5077220;28;20539;-91
2022/10/20 13:22:39;;;;;;;0.00;0.00;;;15.20;99.90;;;;;;5071174;28;20049;-89
2022/10/20 13:25:15;;;;;;;0.00;0.00;;;15.30;99.90;;;;;;5069947;28;20045;-88
2022/10/20 13:27:42;;;;;;;0.00;0.00;;;;;;;;;;5081148;28;20141;-89
2022/10/20 13:30:17;;;;;;;0.00;0.00;;;15.20;99.90;;;;;;5077002;28;20499;-87
2022/10/20 13:32:54;;;;;;;0.00;0.00;;;15.20;99.90;;;;;;5081670;28;20464;-87
2022/10/20 13:35:51;;;;;;;0.00;0.00;;;15.70;99.90;;;;;;5061385;28;20052;-89
2022/10/20 13:38:22;;;;;;;0.00;0.00;;;14.90;99.90;;;;;;5071289;28;20131;-88
2022/10/20 13:40:58;;;;;;;0.00;0.00;;;15.00;99.90;;;;;;5069748;28;20064;-91
2022/10/20 13:43:31;;;;;;;0.00;0.00;;;15.00;99.90;;;;;;5075086;28;20098;-87
2022/10/20 13:46:30;;;;;;;0.00;0.00;;;16.10;99.90;;;;;;5076635;28;20135;-92
2022/10/20 13:49:15;;;;;;;0.10;0.10;;;15.00;99.90;;;;;;5072060;28;20111;-89
2022/10/20 13:51:48;;;;;;;0.00;0.00;;;15.00;99.90;;;;;;5085351;28;20033;-87